シンガポール/チャンギ の空港の天気 - METARとTAF

シンガポール・チャンギ国際空港 ( WSSS / SIN ) - シンガポール Changi
飛行場実況気象(Metar)
観測時間06/24 17:30 SGT (06/24 09:30 UTC)
風向・風速南西 2m/s
視程7000m
天気現象弱い雷雨
少しの雲 雲底高度 430m
少しの雲 雲底高度 490m
少しの雲 雲底高度 520m
全天の4割程度の雲 雲底高度 4880m
気温27℃
湿度84%
気圧1009hPa
METARWSSS 240930Z 22003KT 190V310 7000 -TSRA FEW014 FEW016CB FEW017TCU SCT160 27/24 Q1009 BECMG TL0940 NSW
過去の天気等 Google飛行場航空写真 Wunderground天気予報

過去48時間のMETAR

飛行場予報(TAF)
発表時間: 6/24 16:00 SGT (6/24 08:00 UTC)
予報対象時間: 24日16時 SGT ~ 25日20時 SGT
風向・風速南 5m/s
視程10km以上
少しの雲 雲底高度 460m
全天の4割程度の雲 雲底高度 610m
25日8時 SGT ~ 25日12時 SGT に一時的に
視程3000m
天気現象雷雨
少しの積乱雲 雲底高度 370m
全天の8割程度の雲 雲底高度 460m
TAF AMD WSSS 240800Z 2408/2512 17010KT 9999 FEW015 SCT020
TEMPO 2500/2504 3000 TSRA FEW012CB BKN015